ADDS METAR Data INFO
IDs: Format: Raw Decoded Include TAF

Data at: 1136 UTC 23 Jun 2018

KLXT 231053Z AUTO 22003KT 10SM CLR 18/18 A2982 RMK AO2 SLP090 T01830178
KLXT 230953Z AUTO 00000KT 10SM SCT110 18/18 A2982 RMK AO2 SLP090 T01830178
KLXT 230853Z AUTO 10SM SCT046 BKN120 18/18 A2981 RMK AO2 SLP088 T01830178 55009
KLXT 230753Z AUTO 05005KT 10SM CLR 18/17 A2977 RMK AO2 SLP074 T01830172
KLXT 230653Z AUTO 35003KT 10SM OVC043 19/17 A2980 RMK AO2 SLP084 T01940172
KLXT 230643Z AUTO 32004KT 10SM FEW020 FEW028 OVC043 19/17 A2981 RMK AO2 T01940172
KLXT 230618Z AUTO 28003KT 10SM BKN019 OVC038 19/18 A2982 RMK AO2 T01940178
KLXT 230553Z AUTO 28003KT 10SM FEW018 SCT029 OVC037 19/18 A2983 RMK AO2 SLP097 T01940178 10217 20189 402280189 50010
KLXT 230509Z AUTO 26003KT 10SM BKN019 BKN023 OVC038 20/18 A2987 RMK AO2 T02000178
KLXT 230453Z AUTO 27003KT 10SM FEW022 OVC038 19/18 A2987 RMK AO2 SLP108 T01940178
KLXT 230353Z AUTO 00000KT 10SM BKN036 20/17 A2985 RMK AO2 SLP101 T02000172
KLXT 230253Z AUTO 00000KT 10SM OVC033 21/18 A2980 RMK AO2 SLP086 T02060178 53001
KLXT 230153Z AUTO 03006KT 10SM OVC033 21/17 A2979 RMK AO2 SLP080 T02060172
KLXT 230053Z AUTO 01006KT 10SM OVC033 21/17 A2980 RMK AO2 SLP084 T02110167
KLXT 222353Z AUTO 35008KT 10SM OVC033 21/17 A2980 RMK AO2 SLP084 T02110172 10228 20194 58010
KLXT 222253Z AUTO 35009KT 10SM OVC034 22/17 A2981 RMK AO2 SLP087 T02170172
KLXT 222153Z AUTO 32008KT 10SM OVC030 22/17 A2983 RMK AO2 SLP094 T02170172
KLXT 222145Z AUTO 32007KT 10SM OVC030 22/17 A2982 RMK AO2 T02170172
KLXT 222107Z AUTO 34007KT 10SM OVC027 21/17 A2983 RMK AO2 T02110167
KLXT 222053Z AUTO 36011KT 10SM SCT024 OVC030 22/17 A2983 RMK AO2 SLP095 T02170172 56011
KLXT 222049Z AUTO 34010KT 10SM SCT024 OVC033 22/17 A2983 RMK AO2
KLXT 222041Z AUTO 34010KT 10SM BKN024 BKN030 OVC037 22/17 A2983 RMK AO2 T02220172
KLXT 222028Z AUTO 29009G15KT 10SM SCT022 OVC037 22/17 A2983 RMK AO2 T02220172
KLXT 221953Z AUTO 31010KT 10SM OVC021 21/17 A2985 RMK AO2 SLP102 T02110167
KLXT 221853Z AUTO 32007KT 10SM BKN019 BKN026 OVC033 20/17 A2986 RMK AO2 SLP106 T02000172
KLXT 221753Z AUTO 30007KT 10SM BKN018 OVC024 20/17 A2987 RMK AO2 SLP108 T02000167 10217 20194 53003
KLXT 221653Z AUTO 27009KT 10SM BKN020 OVC033 22/17 A2986 RMK AO2 SLP106 T02170172
KLXT 221640Z AUTO 29009KT 260V320 10SM BKN021 OVC034 22/17 A2986 RMK AO2 T02170172
KLXT 221614Z AUTO 32011KT 10SM SCT020 OVC033 21/17 A2986 RMK AO2 T02110167